Terminal Aerodrome Forecast
Issued by NWS Chicago, IL

Home | Current Version | Previous Version | Graphics & Text | Print | Product List | Glossary On
Versions: 1 2 3 4 5 6 7 8 9 10 11 12 13 14 15 16 17 18 19 20 21 22 23 24
000
FTUS43 KLOT 241730
TAFRFD
TAF
KRFD 241730Z 2418/2518 21012KT P6SM SCT040 BKN200
     FM250300 21004KT P6SM BKN150
     FM250900 18004KT 3SM BR SCT040 PROB30 2509/2515 4SM TSRA
      BKN040CB
     FM251500 15007KT P6SM SCT060 PROB30 2515/2518 4SM TSRA
      BKN040CB=

USA.gov is the U.S. government's official web portal to all federal, state and local government web resources and services.